Time;durP1;ratioP1;P1;durP2;ratioP2;P2;SDS_P1;SDS_P2;PMS_P1;PMS_P2;Temp;Humidity;BMP_temperature;BMP_pressure;BME280_temperature;BME280_humidity;BME280_pressure;Samples;Min_cycle;Max_cycle;Signal;HPM_P1;HPM_P2
2022/10/12 00:01:55;;;;;;;0.47;0.30;;;11.60;99.90;;;;;;5031401;28;20668;-59
2022/10/12 00:04:21;;;;;;;0.08;0.08;;;11.50;99.90;;;;;;5031514;28;20218;-59
2022/10/12 00:06:46;;;;;;;0.10;0.10;;;11.50;99.90;;;;;;5032014;28;20185;-59
2022/10/12 00:09:12;;;;;;;0.47;0.47;;;11.50;99.90;;;;;;5031505;28;20188;-59
2022/10/12 00:11:39;;;;;;;0.00;0.00;;;11.40;99.90;;;;;;5032211;28;20222;-59
2022/10/12 00:14:05;;;;;;;0.43;0.43;;;11.40;99.90;;;;;;5031485;28;20202;-59
2022/10/12 00:16:30;;;;;;;0.00;0.00;;;11.40;99.90;;;;;;5031888;28;20574;-59
2022/10/12 00:18:57;;;;;;;0.00;0.00;;;11.40;99.90;;;;;;5031905;28;20178;-59
2022/10/12 00:21:24;;;;;;;0.05;0.05;;;11.40;99.90;;;;;;5031170;28;20194;-59
2022/10/12 00:23:50;;;;;;;0.00;0.00;;;11.40;99.90;;;;;;5030199;28;20178;-59
2022/10/12 00:26:21;;;;;;;0.00;0.00;;;11.40;99.90;;;;;;5031290;28;20188;-59
2022/10/12 00:28:47;;;;;;;0.00;0.00;;;11.30;99.90;;;;;;5031682;28;20657;-59
2022/10/12 00:31:17;;;;;;;0.00;0.00;;;11.30;99.90;;;;;;5031195;28;20213;-59
2022/10/12 00:33:43;;;;;;;0.00;0.00;;;11.30;99.90;;;;;;5031519;28;20182;-59
2022/10/12 00:36:20;;;;;;;0.00;0.00;;;11.30;99.90;;;;;;5031342;28;20186;-59
2022/10/12 00:38:49;;;;;;;0.00;0.00;;;11.30;99.90;;;;;;5031353;28;20193;-59
2022/10/12 00:41:17;;;;;;;0.05;0.05;;;11.30;99.90;;;;;;5029693;28;20186;-59
2022/10/12 00:43:43;;;;;;;0.00;0.00;;;11.30;99.90;;;;;;5031297;28;20189;-59
2022/10/12 00:46:20;;;;;;;1.85;1.27;;;11.30;99.90;;;;;;5030488;28;20186;-59
2022/10/12 00:49:10;;;;;;;0.00;0.00;;;11.20;99.90;;;;;;5031527;28;20328;-59
2022/10/12 00:51:38;;;;;;;0.00;0.00;;;11.20;99.90;;;;;;5031026;28;20244;-59
2022/10/12 00:54:08;;;;;;;0.00;0.00;;;11.20;99.90;;;;;;5031143;28;20190;-58
2022/10/12 00:56:36;;;;;;;0.05;0.05;;;11.10;99.90;;;;;;5031384;28;20183;-59
2022/10/12 00:59:05;;;;;;;0.00;0.00;;;11.10;99.90;;;;;;5012047;28;20205;-59
2022/10/12 01:01:33;;;;;;;0.10;0.10;;;11.10;99.90;;;;;;5030970;28;20176;-59
2022/10/12 01:03:59;;;;;;;0.20;0.20;;;11.10;99.90;;;;;;5030797;28;20190;-59
2022/10/12 01:06:25;;;;;;;0.00;0.00;;;11.10;99.90;;;;;;5029011;28;20186;-59
2022/10/12 01:08:52;;;;;;;0.10;0.10;;;11.10;99.90;;;;;;5030780;28;20186;-59
2022/10/12 01:11:18;;;;;;;0.00;0.00;;;11.00;99.90;;;;;;5030208;28;20229;-59
2022/10/12 01:13:43;;;;;;;0.00;0.00;;;11.00;99.90;;;;;;5036621;28;20177;-59
2022/10/12 01:16:34;;;;;;;0.13;0.13;;;11.00;99.90;;;;;;5037179;28;20192;-59
2022/10/12 01:19:14;;;;;;;0.00;0.00;;;10.90;99.90;;;;;;5037239;28;20193;-59
2022/10/12 01:21:47;;;;;;;0.00;0.00;;;10.90;99.90;;;;;;5037144;28;20205;-59
2022/10/12 01:24:42;;;;;;;0.00;0.00;;;10.90;99.90;;;;;;5037225;28;20174;-59
2022/10/12 01:27:19;;;;;;;0.00;0.00;;;10.90;99.90;;;;;;5037634;28;20549;-59
2022/10/12 01:30:05;;;;;;;0.00;0.00;;;10.90;99.90;;;;;;5037273;28;20482;-59
2022/10/12 01:32:52;;;;;;;0.10;0.10;;;10.90;99.90;;;;;;5036995;28;20190;-59
2022/10/12 01:35:36;;;;;;;0.00;0.00;;;10.90;99.90;;;;;;5037435;28;20181;-59
2022/10/12 01:38:21;;;;;;;0.00;0.00;;;10.90;99.90;;;;;;5037333;28;20191;-59
2022/10/12 01:41:07;;;;;;;0.00;0.00;;;10.90;99.90;;;;;;5035784;28;20257;-59
2022/10/12 01:43:39;;;;;;;0.10;0.10;;;10.80;99.90;;;;;;5037236;28;20187;-59
2022/10/12 01:46:19;;;;;;;0.10;0.10;;;10.80;99.90;;;;;;5037309;28;20197;-59
2022/10/12 01:48:48;;;;;;;0.00;0.00;;;10.70;99.90;;;;;;5037486;28;20206;-58
2022/10/12 01:51:29;;;;;;;0.10;0.10;;;10.70;99.90;;;;;;5037110;28;20225;-59
2022/10/12 01:54:00;;;;;;;0.00;0.00;;;10.70;99.90;;;;;;5036851;28;21888;-58
2022/10/12 01:56:41;;;;;;;0.00;0.00;;;10.70;99.90;;;;;;5025571;28;20268;-58
2022/10/12 01:59:11;;;;;;;0.00;0.00;;;10.70;99.90;;;;;;5037062;28;20518;-59
2022/10/12 02:01:53;;;;;;;0.10;0.10;;;10.60;99.90;;;;;;5034056;28;20269;-59
2022/10/12 02:04:48;;;;;;;0.00;0.00;;;10.60;99.90;;;;;;5036602;28;20241;-59
2022/10/12 02:07:23;;;;;;;0.55;0.30;;;10.60;99.90;;;;;;5026929;28;20196;-59
2022/10/12 02:09:53;;;;;;;0.00;0.00;;;10.50;99.90;;;;;;5030383;28;20657;-59
2022/10/12 02:12:22;;;;;;;0.00;0.00;;;10.50;99.90;;;;;;5036548;28;20505;-59
2022/10/12 02:14:52;;;;;;;0.10;0.10;;;10.60;99.90;;;;;;5036580;28;20171;-59
2022/10/12 02:17:21;;;;;;;0.00;0.00;;;10.60;99.90;;;;;;5036805;28;20174;-59
2022/10/12 02:19:51;;;;;;;0.00;0.00;;;10.50;99.90;;;;;;5036514;28;20189;-59
2022/10/12 02:22:17;;;;;;;0.00;0.00;;;10.40;99.90;;;;;;5036731;28;20240;-59
2022/10/12 02:24:46;;;;;;;0.00;0.00;;;10.40;99.90;;;;;;5033323;28;20661;-59
2022/10/12 02:27:14;;;;;;;0.00;0.00;;;10.40;99.90;;;;;;5032289;28;20283;-59
2022/10/12 02:29:44;;;;;;;0.10;0.10;;;10.30;99.90;;;;;;5032923;28;20186;-59
2022/10/12 02:32:25;;;;;;;0.00;0.00;;;10.30;99.90;;;;;;5033386;28;20189;-59
2022/10/12 02:35:09;;;;;;;0.10;0.10;;;10.30;99.90;;;;;;5033269;28;20232;-59
2022/10/12 02:37:39;;;;;;;0.00;0.00;;;10.20;99.90;;;;;;5033424;28;20197;-59
2022/10/12 02:40:10;;;;;;;0.10;0.10;;;10.20;99.90;;;;;;5023017;28;20232;-58
2022/10/12 02:42:43;;;;;;;0.10;0.10;;;10.20;99.90;;;;;;5033405;28;20186;-59
2022/10/12 02:45:11;;;;;;;0.03;0.03;;;10.20;99.90;;;;;;5033323;28;20206;-59
2022/10/12 02:47:38;;;;;;;0.00;0.00;;;10.20;99.90;;;;;;5033167;28;20237;-59
2022/10/12 02:50:06;;;;;;;0.65;0.15;;;10.10;99.90;;;;;;5037425;28;20304;-58
2022/10/12 02:52:32;;;;;;;0.13;0.13;;;10.10;99.90;;;;;;5046353;28;20196;-59
2022/10/12 02:54:58;;;;;;;0.00;0.00;;;10.10;99.90;;;;;;5021737;28;20193;-58
2022/10/12 02:57:23;;;;;;;0.00;0.00;;;10.10;99.90;;;;;;5033300;28;20520;-58
2022/10/12 02:59:49;;;;;;;0.03;0.03;;;10.10;99.90;;;;;;5032894;28;20223;-58
2022/10/12 03:02:15;;;;;;;0.15;0.15;;;10.10;99.90;;;;;;5032898;28;20182;-58
2022/10/12 03:04:40;;;;;;;0.00;0.00;;;10.20;99.90;;;;;;5032617;28;20366;-58
2022/10/12 03:07:06;;;;;;;0.08;0.03;;;10.20;99.90;;;;;;5033115;28;20514;-59
2022/10/12 03:09:31;;;;;;;0.10;0.10;;;10.20;99.90;;;;;;5032394;28;20178;-58
2022/10/12 03:11:57;;;;;;;0.32;0.30;;;10.20;99.90;;;;;;5032983;28;20221;-59
2022/10/12 03:14:22;;;;;;;0.35;0.35;;;10.30;99.90;;;;;;5032379;28;20209;-59
2022/10/12 03:16:48;;;;;;;0.28;0.28;;;10.30;99.90;;;;;;5032725;28;20512;-60
2022/10/12 03:19:14;;;;;;;0.00;0.00;;;10.30;99.90;;;;;;5032519;28;20328;-59
2022/10/12 03:21:40;;;;;;;0.00;0.00;;;10.30;99.90;;;;;;5032523;28;20197;-59
2022/10/12 03:24:06;;;;;;;0.00;0.00;;;10.30;99.90;;;;;;5032570;28;20182;-59
2022/10/12 03:26:32;;;;;;;0.05;0.00;;;10.30;99.90;;;;;;5032408;28;20659;-59
2022/10/12 03:28:57;;;;;;;0.00;0.00;;;10.30;99.90;;;;;;5032591;28;20190;-58
2022/10/12 03:31:23;;;;;;;0.00;0.00;;;10.40;99.90;;;;;;5032478;28;20231;-58
2022/10/12 03:33:48;;;;;;;0.00;0.00;;;10.40;99.90;;;;;;5032956;28;20672;-58
2022/10/12 03:36:14;;;;;;;0.15;0.15;;;10.40;99.90;;;;;;5031187;28;20186;-59
2022/10/12 03:38:40;;;;;;;0.00;0.00;;;10.40;99.90;;;;;;5032327;28;20186;-59
2022/10/12 03:41:05;;;;;;;0.00;0.00;;;10.40;99.90;;;;;;5032509;28;20186;-59
2022/10/12 03:43:31;;;;;;;0.00;0.00;;;10.40;99.90;;;;;;5032539;28;20197;-59
2022/10/12 03:45:57;;;;;;;0.10;0.10;;;10.50;99.90;;;;;;5032157;28;20269;-59
2022/10/12 03:48:22;;;;;;;0.10;0.10;;;10.50;99.90;;;;;;5032403;28;20173;-58
2022/10/12 03:50:51;;;;;;;0.00;0.00;;;10.40;99.90;;;;;;5031831;28;20309;-58
2022/10/12 03:53:18;;;;;;;0.13;0.13;;;10.50;99.90;;;;;;5029002;28;20179;-59
2022/10/12 03:55:44;;;;;;;0.17;0.17;;;10.50;99.90;;;;;;5031801;28;20212;-59
2022/10/12 03:58:10;;;;;;;0.15;0.15;;;10.50;99.90;;;;;;5031553;28;20185;-58
2022/10/12 04:00:35;;;;;;;0.10;0.10;;;10.50;99.90;;;;;;5032362;28;20186;-58
2022/10/12 04:03:01;;;;;;;0.20;0.20;;;10.50;99.90;;;;;;5031894;28;20182;-58
2022/10/12 04:05:28;;;;;;;0.00;0.00;;;10.50;99.90;;;;;;5031881;28;20305;-58
2022/10/12 04:07:53;;;;;;;0.00;0.00;;;10.50;99.90;;;;;;5032077;28;20689;-60
2022/10/12 04:10:19;;;;;;;0.00;0.00;;;10.50;99.90;;;;;;5031463;28;20301;-58
2022/10/12 04:12:45;;;;;;;0.00;0.00;;;10.50;99.90;;;;;;5031430;28;20587;-58
2022/10/12 04:15:11;;;;;;;0.32;0.25;;;10.50;99.90;;;;;;5031846;28;20582;-57
2022/10/12 04:17:36;;;;;;;0.10;0.10;;;10.50;99.90;;;;;;5032012;28;20170;-58
2022/10/12 04:20:02;;;;;;;0.80;0.38;;;10.50;99.90;;;;;;5032039;28;20243;-57
2022/10/12 04:22:28;;;;;;;0.17;0.17;;;10.50;99.90;;;;;;5032388;28;20553;-59
2022/10/12 04:24:53;;;;;;;0.30;0.30;;;10.50;99.90;;;;;;5031911;28;20174;-57
2022/10/12 04:27:19;;;;;;;0.10;0.10;;;10.50;99.90;;;;;;5031633;28;20193;-59
2022/10/12 04:29:44;;;;;;;0.15;0.15;;;10.50;99.90;;;;;;5031548;28;20182;-58
2022/10/12 04:32:10;;;;;;;0.00;0.00;;;10.50;99.90;;;;;;5031730;28;20261;-59
2022/10/12 04:34:36;;;;;;;0.00;0.00;;;10.40;99.90;;;;;;5032170;28;20174;-58
2022/10/12 04:37:02;;;;;;;0.00;0.00;;;10.40;99.90;;;;;;5031816;28;20190;-57
2022/10/12 04:39:28;;;;;;;0.13;0.13;;;10.40;99.90;;;;;;5031629;28;20265;-57
2022/10/12 04:41:54;;;;;;;0.00;0.00;;;10.40;99.90;;;;;;5031154;28;20178;-58
2022/10/12 04:44:20;;;;;;;0.05;0.05;;;10.40;99.90;;;;;;5031011;28;20246;-58
2022/10/12 04:46:45;;;;;;;0.00;0.00;;;10.40;99.90;;;;;;5030787;28;20178;-58
2022/10/12 04:49:11;;;;;;;0.00;0.00;;;10.30;99.90;;;;;;5031395;28;20269;-58
2022/10/12 04:51:37;;;;;;;0.00;0.00;;;10.30;99.90;;;;;;5032037;28;20209;-59
2022/10/12 04:54:02;;;;;;;0.00;0.00;;;10.30;99.90;;;;;;5032008;28;20186;-58
2022/10/12 04:56:28;;;;;;;0.10;0.10;;;10.30;99.90;;;;;;5031654;28;20179;-59
2022/10/12 04:58:53;;;;;;;0.00;0.00;;;10.30;99.90;;;;;;5031891;28;20166;-58
2022/10/12 05:01:19;;;;;;;0.00;0.00;;;10.30;99.90;;;;;;5031757;28;20236;-58
2022/10/12 05:03:45;;;;;;;0.00;0.00;;;10.20;99.90;;;;;;5031735;28;20170;-58
2022/10/12 05:06:10;;;;;;;0.13;0.13;;;10.20;99.90;;;;;;5031588;28;20234;-58
2022/10/12 05:08:36;;;;;;;0.10;0.10;;;10.20;99.90;;;;;;5031840;28;20177;-59
2022/10/12 05:11:01;;;;;;;0.10;0.10;;;10.10;99.90;;;;;;5031702;28;20214;-58
2022/10/12 05:13:27;;;;;;;0.00;0.00;;;10.10;99.90;;;;;;5031576;28;20177;-58
2022/10/12 05:15:53;;;;;;;0.00;0.00;;;10.10;99.90;;;;;;5031748;28;20182;-58
2022/10/12 05:18:18;;;;;;;0.00;0.00;;;10.10;99.90;;;;;;5031682;28;20246;-58
2022/10/12 05:20:44;;;;;;;0.10;0.10;;;10.00;99.90;;;;;;5031713;28;20186;-58
2022/10/12 05:23:10;;;;;;;0.00;0.00;;;10.10;99.90;;;;;;5031559;28;20182;-58
2022/10/12 05:25:36;;;;;;;0.00;0.00;;;10.00;99.90;;;;;;5031561;28;20178;-58
2022/10/12 05:28:01;;;;;;;0.00;0.00;;;10.10;99.90;;;;;;5031430;28;20200;-59
2022/10/12 05:30:27;;;;;;;0.00;0.00;;;10.00;99.90;;;;;;5031262;28;20218;-58
2022/10/12 05:32:52;;;;;;;0.00;0.00;;;10.10;99.90;;;;;;5031363;28;20186;-58
2022/10/12 05:35:18;;;;;;;0.00;0.00;;;10.10;99.90;;;;;;5031494;28;20180;-58
2022/10/12 05:37:44;;;;;;;0.00;0.00;;;10.10;99.90;;;;;;5031471;28;20177;-58
2022/10/12 05:40:10;;;;;;;0.10;0.10;;;10.10;99.90;;;;;;5031394;28;20178;-58
2022/10/12 05:42:35;;;;;;;0.40;0.40;;;10.10;99.90;;;;;;5031491;28;20175;-58
2022/10/12 05:45:01;;;;;;;0.03;0.03;;;10.10;99.90;;;;;;5031423;28;20190;-58
2022/10/12 05:47:27;;;;;;;0.00;0.00;;;10.10;99.90;;;;;;5031290;28;20555;-58
2022/10/12 05:49:53;;;;;;;0.00;0.00;;;10.10;99.90;;;;;;5031427;28;20178;-58
2022/10/12 05:52:18;;;;;;;0.20;0.17;;;10.10;99.90;;;;;;5031240;28;20569;-58
2022/10/12 05:54:44;;;;;;;0.00;0.00;;;10.10;99.90;;;;;;5031439;28;20197;-58
2022/10/12 05:57:10;;;;;;;0.00;0.00;;;10.20;99.90;;;;;;5031227;28;20205;-58
2022/10/12 05:59:35;;;;;;;0.20;0.20;;;10.20;99.90;;;;;;5032923;28;20206;-58
2022/10/12 06:02:01;;;;;;;0.32;0.32;;;10.20;99.90;;;;;;5035044;28;20539;-58
2022/10/12 06:04:26;;;;;;;0.35;0.35;;;10.30;99.90;;;;;;5034789;28;20218;-58
2022/10/12 06:06:52;;;;;;;0.00;0.00;;;10.30;99.90;;;;;;5035088;28;20224;-58
2022/10/12 06:09:18;;;;;;;0.00;0.00;;;10.30;99.90;;;;;;5035104;28;20186;-58
2022/10/12 06:11:43;;;;;;;0.00;0.00;;;10.30;99.90;;;;;;5034630;28;20213;-58
2022/10/12 06:14:09;;;;;;;0.00;0.00;;;10.40;99.90;;;;;;5034995;28;20174;-59
2022/10/12 06:16:34;;;;;;;0.00;0.00;;;10.40;99.90;;;;;;5035044;28;20182;-58
2022/10/12 06:19:00;;;;;;;0.20;0.20;;;10.40;99.90;;;;;;5034462;28;20225;-58
2022/10/12 06:21:25;;;;;;;0.00;0.00;;;10.40;99.90;;;;;;5034807;28;20178;-58
2022/10/12 06:23:51;;;;;;;0.85;0.17;;;10.40;99.90;;;;;;5034692;28;20539;-58
2022/10/12 06:26:16;;;;;;;0.10;0.10;;;10.50;99.90;;;;;;5034558;28;20225;-59
2022/10/12 06:28:42;;;;;;;0.00;0.00;;;10.50;99.90;;;;;;5034510;28;20255;-59
2022/10/12 06:31:08;;;;;;;0.00;0.00;;;10.50;99.90;;;;;;5034512;28;20684;-58
2022/10/12 06:33:33;;;;;;;0.08;0.08;;;10.50;99.90;;;;;;5034621;28;20181;-58
2022/10/12 06:35:59;;;;;;;0.00;0.00;;;10.60;99.90;;;;;;5034434;28;20283;-58
2022/10/12 06:38:24;;;;;;;0.10;0.10;;;10.60;99.90;;;;;;5034391;28;20182;-58
2022/10/12 06:40:52;;;;;;;0.00;0.00;;;10.60;99.90;;;;;;5034374;28;20802;-58
2022/10/12 06:43:18;;;;;;;0.15;0.15;;;10.70;99.90;;;;;;5034189;28;20190;-58
2022/10/12 06:45:43;;;;;;;0.00;0.00;;;10.80;99.90;;;;;;5034229;28;20181;-59
2022/10/12 06:48:09;;;;;;;0.47;0.47;;;10.80;99.90;;;;;;5034221;28;20642;-59
2022/10/12 06:50:35;;;;;;;0.00;0.00;;;10.90;99.90;;;;;;5034240;28;20214;-59
2022/10/12 06:53:00;;;;;;;0.00;0.00;;;11.10;99.90;;;;;;5032812;28;20189;-59
2022/10/12 06:55:27;;;;;;;0.20;0.20;;;11.30;99.90;;;;;;5034066;28;20186;-59
2022/10/12 06:57:54;;;;;;;0.10;0.10;;;11.60;99.90;;;;;;5034094;28;20174;-58
2022/10/12 07:00:19;;;;;;;0.10;0.10;;;11.80;99.90;;;;;;5034001;28;20265;-59
2022/10/12 07:02:49;;;;;;;0.03;0.03;;;12.10;99.90;;;;;;5034064;28;20213;-59
2022/10/12 07:05:15;;;;;;;0.00;0.00;;;12.40;99.90;;;;;;5033785;28;20287;-59
2022/10/12 07:07:41;;;;;;;0.00;0.00;;;12.80;99.90;;;;;;5033861;28;20193;-59
2022/10/12 07:10:07;;;;;;;0.10;0.10;;;13.00;99.90;;;;;;5033386;28;20273;-59
2022/10/12 07:12:34;;;;;;;0.00;0.00;;;13.40;99.90;;;;;;5033864;28;20261;-59
2022/10/12 07:15:00;;;;;;;0.00;0.00;;;13.60;99.90;;;;;;5033601;28;20217;-59
2022/10/12 07:17:26;;;;;;;0.28;0.28;;;13.90;99.90;;;;;;5033873;28;20214;-59
2022/10/12 07:19:51;;;;;;;0.00;0.00;;;14.10;99.90;;;;;;5033564;28;20182;-59
2022/10/12 07:22:17;;;;;;;0.63;0.63;;;14.30;99.90;;;;;;5033559;28;20178;-59
2022/10/12 07:24:42;;;;;;;0.00;0.00;;;14.50;99.90;;;;;;5033527;28;20170;-59
2022/10/12 07:27:09;;;;;;;0.00;0.00;;;14.40;99.90;;;;;;5033505;28;20178;-59
2022/10/12 07:29:36;;;;;;;0.25;0.25;;;14.40;99.90;;;;;;5033625;28;20539;-59
2022/10/12 07:32:02;;;;;;;0.00;0.00;;;14.30;99.90;;;;;;5033203;28;20209;-59
2022/10/12 07:34:28;;;;;;;0.40;0.40;;;14.20;99.90;;;;;;5033540;28;20182;-59
2022/10/12 07:36:55;;;;;;;0.20;0.20;;;14.00;99.90;;;;;;5033235;28;20235;-59
2022/10/12 07:39:21;;;;;;;0.05;0.03;;;13.90;99.90;;;;;;5033022;28;20190;-59
2022/10/12 07:41:48;;;;;;;0.00;0.00;;;13.90;99.90;;;;;;5033355;28;20178;-59
2022/10/12 07:44:13;;;;;;;0.05;0.05;;;14.00;99.90;;;;;;5033137;28;20174;-59
2022/10/12 07:46:39;;;;;;;0.00;0.00;;;14.10;99.90;;;;;;5033229;28;20240;-59
2022/10/12 07:49:05;;;;;;;0.15;0.15;;;14.30;99.90;;;;;;5033042;28;20672;-59
2022/10/12 07:51:30;;;;;;;0.00;0.00;;;14.50;99.90;;;;;;5033034;28;20220;-59
2022/10/12 07:53:56;;;;;;;0.10;0.10;;;14.70;99.90;;;;;;5032970;28;20175;-59
2022/10/12 07:56:21;;;;;;;0.00;0.00;;;14.80;99.90;;;;;;5032782;28;20285;-59
2022/10/12 07:58:49;;;;;;;0.10;0.10;;;14.90;99.90;;;;;;5032982;28;20194;-59
2022/10/12 08:01:15;;;;;;;0.00;0.00;;;14.90;99.90;;;;;;5032769;28;20182;-59
2022/10/12 08:03:41;;;;;;;0.00;0.00;;;15.00;99.90;;;;;;5032819;28;20575;-59
2022/10/12 08:06:09;;;;;;;0.00;0.00;;;15.00;99.90;;;;;;5031313;28;20245;-59
2022/10/12 08:08:34;;;;;;;0.00;0.00;;;15.00;99.90;;;;;;5031471;28;20532;-59
2022/10/12 08:11:01;;;;;;;0.00;0.00;;;15.00;99.90;;;;;;5032369;28;20210;-59
2022/10/12 08:13:26;;;;;;;0.00;0.00;;;14.80;99.90;;;;;;5032575;28;20252;-59
2022/10/12 08:15:52;;;;;;;0.08;0.08;;;14.70;99.90;;;;;;5032694;28;20261;-59
2022/10/12 08:18:17;;;;;;;0.00;0.00;;;14.70;99.90;;;;;;5032536;28;20668;-59
2022/10/12 08:20:43;;;;;;;0.20;0.20;;;14.60;99.90;;;;;;5032383;28;20174;-59
2022/10/12 08:23:08;;;;;;;0.00;0.00;;;14.50;99.90;;;;;;5031827;28;20182;-59
2022/10/12 08:25:36;;;;;;;0.00;0.00;;;14.50;99.90;;;;;;5032570;28;20213;-60
2022/10/12 08:28:02;;;;;;;0.00;0.00;;;14.50;99.90;;;;;;5032153;28;20174;-59
2022/10/12 08:30:28;;;;;;;0.00;0.00;;;14.40;99.90;;;;;;5032267;28;20228;-59
2022/10/12 08:32:53;;;;;;;0.30;0.30;;;14.40;99.90;;;;;;5032277;28;20264;-59
2022/10/12 08:35:19;;;;;;;0.05;0.05;;;14.40;99.90;;;;;;5032225;28;20217;-59
2022/10/12 08:37:44;;;;;;;0.03;0.03;;;14.40;99.90;;;;;;5032285;28;20178;-59
2022/10/12 08:40:17;;;;;;;0.00;0.00;;;14.50;99.90;;;;;;5032227;28;20170;-59
2022/10/12 08:42:51;;;;;;;0.10;0.10;;;14.60;99.90;;;;;;5032030;28;20178;-59
2022/10/12 08:45:33;;;;;;;0.00;0.00;;;14.60;99.90;;;;;;5032159;28;20560;-59
2022/10/12 08:48:15;;;;;;;0.10;0.10;;;14.70;99.90;;;;;;5032140;28;20178;-59
2022/10/12 08:50:57;;;;;;;0.00;0.00;;;14.80;99.90;;;;;;5031975;28;20225;-59
2022/10/12 08:53:33;;;;;;;0.05;0.05;;;15.00;99.90;;;;;;5031882;28;20224;-59
2022/10/12 08:56:00;;;;;;;0.15;0.15;;;15.10;99.90;;;;;;5032054;28;20270;-59
2022/10/12 08:58:31;;;;;;;0.10;0.10;;;15.20;99.90;;;;;;5031960;28;20633;-59
2022/10/12 09:01:09;;;;;;;0.08;0.08;;;15.30;99.90;;;;;;5032075;28;20185;-59
2022/10/12 09:03:39;;;;;;;0.00;0.00;;;15.50;99.90;;;;;;5032036;28;20185;-59
2022/10/12 09:06:17;;;;;;;0.00;0.00;;;15.70;99.90;;;;;;5031607;28;20218;-59
2022/10/12 09:08:46;;;;;;;0.00;0.00;;;15.80;99.90;;;;;;5031795;28;20308;-60
2022/10/12 09:11:11;;;;;;;0.00;0.00;;;16.00;99.90;;;;;;5031612;28;20249;-60
2022/10/12 09:13:51;;;;;;;0.13;0.13;;;16.10;99.90;;;;;;5031807;28;20256;-60
2022/10/12 09:16:29;;;;;;;0.25;0.15;;;16.30;99.90;;;;;;5031859;28;20212;-59
2022/10/12 09:18:59;;;;;;;0.08;0.08;;;16.50;99.90;;;;;;5031746;28;20184;-59
2022/10/12 09:21:27;;;;;;;0.10;0.10;;;16.70;99.90;;;;;;5031684;28;20629;-60
2022/10/12 09:23:54;;;;;;;0.00;0.00;;;16.80;99.90;;;;;;5031719;28;20182;-60
2022/10/12 09:26:33;;;;;;;0.00;0.00;;;16.90;99.90;;;;;;5031494;28;20206;-59
2022/10/12 09:28:59;;;;;;;0.03;0.03;;;17.10;99.90;;;;;;5031764;28;20271;-59
2022/10/12 09:31:24;;;;;;;0.60;0.60;;;17.20;99.90;;;;;;5031449;28;20257;-59
2022/10/12 09:33:54;;;;;;;0.20;0.20;;;17.30;99.90;;;;;;5033571;28;20252;-59
2022/10/12 09:36:22;;;;;;;0.00;0.00;;;17.40;99.90;;;;;;5035528;28;20185;-60
2022/10/12 09:38:49;;;;;;;0.22;0.22;;;17.40;99.90;;;;;;5035481;28;20178;-60
2022/10/12 09:41:22;;;;;;;0.10;0.10;;;17.40;99.90;;;;;;5035443;28;20728;-60
2022/10/12 09:43:52;;;;;;;0.00;0.00;;;17.50;99.90;;;;;;5035461;28;20642;-59
2022/10/12 09:46:27;;;;;;;0.65;0.32;;;17.60;99.90;;;;;;5035386;28;20182;-59
2022/10/12 09:48:58;;;;;;;0.00;0.00;;;17.60;99.90;;;;;;5035420;28;20197;-59
2022/10/12 09:51:24;;;;;;;0.13;0.13;;;17.80;99.90;;;;;;5035149;28;20209;-58
2022/10/12 09:53:50;;;;;;;0.08;0.00;;;17.90;99.90;;;;;;5035361;28;20209;-58
2022/10/12 09:56:23;;;;;;;0.00;0.00;;;18.00;99.90;;;;;;5035172;28;20182;-59
2022/10/12 09:59:30;;;;;;;0.00;0.00;;;18.10;99.90;;;;;;5035233;28;20170;-59
2022/10/12 10:01:58;;;;;;;0.10;0.10;;;18.30;99.90;;;;;;5035209;28;20610;-58
2022/10/12 10:04:25;;;;;;;0.88;0.05;;;18.30;99.90;;;;;;5034866;28;20697;-59
2022/10/12 10:06:51;;;;;;;0.10;0.10;;;18.30;99.90;;;;;;5035046;28;20186;-59
2022/10/12 10:09:28;;;;;;;0.00;0.00;;;18.40;99.90;;;;;;5034953;28;20247;-58
2022/10/12 10:11:56;;;;;;;0.00;0.00;;;18.60;99.90;;;;;;5034936;28;20685;-58
2022/10/12 10:14:22;;;;;;;0.10;0.10;;;18.60;99.90;;;;;;5034649;28;20740;-58
2022/10/12 10:16:50;;;;;;;0.00;0.00;;;18.70;99.90;;;;;;5034914;28;20253;-58
2022/10/12 10:19:18;;;;;;;0.55;0.10;;;18.60;99.90;;;;;;5034583;28;20209;-58
2022/10/12 10:21:43;;;;;;;0.00;0.00;;;18.40;99.90;;;;;;5034804;28;20277;-58
2022/10/12 10:24:24;;;;;;;0.70;0.30;;;18.20;99.90;;;;;;5034686;28;20202;-58
2022/10/12 10:26:54;;;;;;;0.00;0.00;;;18.30;99.90;;;;;;5034577;28;20182;-59
2022/10/12 10:29:35;;;;;;;0.22;0.22;;;18.40;99.90;;;;;;5034622;28;20186;-60
2022/10/12 10:32:30;;;;;;;0.38;0.13;;;18.60;99.90;;;;;;5034304;28;20617;-59
2022/10/12 10:35:01;;;;;;;0.00;0.00;;;18.60;99.90;;;;;;5029791;28;20186;-60
2022/10/12 10:37:28;;;;;;;0.88;0.25;;;18.60;99.90;;;;;;5034422;28;20213;-61
2022/10/12 10:39:55;;;;;;;0.30;0.10;;;18.60;99.90;;;;;;5034515;28;20182;-60
2022/10/12 10:42:31;;;;;;;0.00;0.00;;;18.70;99.90;;;;;;5034245;28;20186;-59
2022/10/12 10:45:02;;;;;;;0.17;0.17;;;18.70;99.90;;;;;;5033751;28;20170;-60
2022/10/12 10:47:31;;;;;;;0.00;0.00;;;18.70;99.90;;;;;;5034543;28;20174;-60
2022/10/12 10:50:01;;;;;;;0.30;0.30;;;18.70;99.90;;;;;;5034381;28;20220;-60
2022/10/12 10:52:34;;;;;;;0.00;0.00;;;18.70;99.90;;;;;;5034340;28;20186;-60
2022/10/12 10:55:22;;;;;;;0.00;0.00;;;18.80;99.90;;;;;;5034218;28;20182;-59
2022/10/12 10:57:57;;;;;;;0.00;0.00;;;19.10;99.90;;;;;;5034220;28;20265;-59
2022/10/12 11:00:23;;;;;;;0.03;0.03;;;19.30;99.90;;;;;;5034043;28;20166;-60
2022/10/12 11:03:01;;;;;;;0.00;0.00;;;19.40;99.90;;;;;;5034094;28;20170;-60
2022/10/12 11:05:41;;;;;;;0.10;0.10;;;19.40;99.90;;;;;;5033897;28;20218;-60
2022/10/12 11:08:21;;;;;;;0.05;0.05;;;19.50;99.90;;;;;;5033905;28;20649;-61
2022/10/12 11:10:49;;;;;;;0.00;0.00;;;19.40;99.90;;;;;;5034032;28;20222;-60
2022/10/12 11:13:39;;;;;;;0.05;0.05;;;19.50;99.90;;;;;;5033838;28;20556;-59
2022/10/12 11:16:23;;;;;;;0.00;0.00;;;19.60;99.90;;;;;;5033810;28;20189;-59
2022/10/12 11:18:56;;;;;;;0.00;0.00;;;19.60;99.90;;;;;;5033723;28;20320;-60
2022/10/12 11:21:29;;;;;;;0.00;0.00;;;19.70;99.90;;;;;;5032286;28;20185;-60
2022/10/12 11:24:17;;;;;;;0.00;0.00;;;19.90;99.90;;;;;;5033752;28;20190;-60
2022/10/12 11:26:51;;;;;;;0.10;0.10;;;19.90;99.90;;;;;;5033556;28;20626;-60
2022/10/12 11:29:17;;;;;;;0.45;0.13;;;20.10;99.90;;;;;;5033574;28;20181;-60
2022/10/12 11:32:11;;;;;;;0.10;0.10;;;20.20;99.90;;;;;;5033317;28;20228;-60
2022/10/12 11:34:51;;;;;;;0.00;0.00;;;20.20;99.90;;;;;;5033570;28;20209;-59
2022/10/12 11:37:21;;;;;;;0.05;0.03;;;20.30;99.90;;;;;;5033387;28;20182;-59
2022/10/12 11:39:50;;;;;;;0.10;0.10;;;20.30;99.90;;;;;;5033363;28;20257;-59
2022/10/12 11:42:32;;;;;;;0.00;0.00;;;20.40;99.90;;;;;;5033233;28;20544;-59
2022/10/12 11:45:01;;;;;;;0.08;0.08;;;20.50;99.90;;;;;;5033183;28;20178;-59
2022/10/12 11:47:29;;;;;;;0.00;0.00;;;20.50;99.90;;;;;;5033163;28;20182;-59
2022/10/12 11:49:59;;;;;;;0.10;0.00;;;20.40;99.90;;;;;;5033064;28;20174;-59
2022/10/12 11:52:34;;;;;;;0.15;0.15;;;20.40;99.90;;;;;;5032861;28;20748;-59
2022/10/12 11:55:22;;;;;;;0.63;0.20;;;20.50;99.90;;;;;;5032950;28;20269;-59
2022/10/12 11:57:49;;;;;;;0.00;0.00;;;20.50;99.90;;;;;;5032088;28;20189;-60
2022/10/12 12:00:36;;;;;;;0.10;0.10;;;20.40;99.90;;;;;;5032910;28;20316;-59
2022/10/12 12:03:33;;;;;;;1.65;0.63;;;20.30;99.90;;;;;;5032759;28;20182;-59
2022/10/12 12:06:28;;;;;;;0.17;0.08;;;20.30;99.90;;;;;;5032712;28;20222;-59
2022/10/12 12:09:04;;;;;;;0.00;0.00;;;20.10;99.90;;;;;;5027778;28;20265;-60
2022/10/12 12:11:33;;;;;;;0.00;0.00;;;20.10;99.90;;;;;;5032797;28;20209;-59
2022/10/12 12:14:37;;;;;;;0.50;0.50;;;20.10;99.90;;;;;;5032660;28;20198;-59
2022/10/12 12:17:12;;;;;;;0.00;0.00;;;20.20;99.90;;;;;;5032327;28;20224;-59
2022/10/12 12:19:43;;;;;;;0.05;0.05;;;20.20;99.90;;;;;;5032805;28;20186;-59
2022/10/12 12:22:19;;;;;;;0.10;0.10;;;20.20;99.90;;;;;;5032487;28;20214;-59
2022/10/12 12:25:12;;;;;;;0.00;0.00;;;20.20;99.90;;;;;;5032555;28;20181;-59
2022/10/12 12:27:42;;;;;;;0.00;0.00;;;20.40;99.90;;;;;;5032373;28;20268;-59
2022/10/12 12:30:16;;;;;;;1.13;1.08;;;20.80;99.90;;;;;;5032525;28;20216;-60
2022/10/12 12:32:47;;;;;;;0.30;0.30;;;21.00;99.90;;;;;;5032241;28;20227;-59
2022/10/12 12:35:29;;;;;;;0.00;0.00;;;21.00;99.20;;;;;;5032258;28;20261;-59
2022/10/12 12:38:07;;;;;;;0.00;0.00;;;21.10;99.70;;;;;;5032321;28;20643;-59
2022/10/12 12:40:33;;;;;;;0.10;0.10;;;21.20;99.10;;;;;;5032348;28;20193;-59
2022/10/12 12:43:29;;;;;;;0.10;0.10;;;21.10;99.20;;;;;;5032137;28;20649;-59
2022/10/12 12:46:06;;;;;;;0.03;0.03;;;21.00;98.90;;;;;;5032159;28;20182;-59
2022/10/12 12:48:38;;;;;;;0.20;0.20;;;20.90;99.10;;;;;;5032282;28;20193;-59
2022/10/12 12:51:07;;;;;;;0.10;0.10;;;20.90;99.40;;;;;;5031956;28;20217;-59
2022/10/12 12:53:44;;;;;;;0.00;0.00;;;20.90;99.20;;;;;;5032140;28;20226;-59
2022/10/12 12:56:44;;;;;;;0.20;0.20;;;21.00;98.40;;;;;;5031946;28;20182;-60
2022/10/12 12:59:41;;;;;;;0.00;0.00;;;21.10;98.60;;;;;;5031833;28;20557;-60
2022/10/12 13:02:31;;;;;;;0.10;0.10;;;21.10;98.40;;;;;;5031912;28;20218;-59
2022/10/12 13:05:02;;;;;;;0.00;0.00;;;21.10;98.30;;;;;;5031678;28;20221;-59